createdAt,value
2018-07-27T00:01:40.707Z,6.87
2018-07-27T00:04:10.783Z,9.27
2018-07-27T00:06:39.805Z,7.57
2018-07-27T00:09:12.582Z,8.70
2018-07-27T00:11:41.785Z,8.43
2018-07-27T00:14:11.097Z,8.33
2018-07-27T00:16:39.685Z,7.10
2018-07-27T00:19:08.384Z,8.43
2018-07-27T00:21:36.948Z,7.57
2018-07-27T00:24:05.620Z,11.20
2018-07-27T00:26:34.221Z,7.73
2018-07-27T00:29:02.857Z,7.73
2018-07-27T00:31:31.434Z,7.83
2018-07-27T00:34:00.919Z,8.23
2018-07-27T00:36:29.637Z,7.53
2018-07-27T00:38:58.629Z,7.27
2018-07-27T00:41:27.235Z,8.20
2018-07-27T00:43:55.822Z,11.93
2018-07-27T00:46:24.432Z,9.47
2018-07-27T00:48:53.042Z,9.23
2018-07-27T00:51:21.960Z,8.00
2018-07-27T00:53:50.546Z,12.73
2018-07-27T00:56:19.313Z,10.77
2018-07-27T00:58:47.953Z,7.57
2018-07-27T01:01:16.554Z,8.30
2018-07-27T01:03:45.141Z,7.83
2018-07-27T01:06:14.720Z,8.20
2018-07-27T01:08:43.302Z,8.17
2018-07-27T01:11:11.893Z,7.57
2018-07-27T01:13:40.509Z,7.90
2018-07-27T01:18:46.493Z,8.90
2018-07-27T01:21:15.143Z,8.20
2018-07-27T01:23:43.777Z,7.53
2018-07-27T01:26:13.154Z,9.50
2018-07-27T01:28:42.116Z,8.97
2018-07-27T01:31:10.949Z,10.73
2018-07-27T01:33:39.556Z,12.83
2018-07-27T01:36:10.648Z,8.50
2018-07-27T01:38:39.260Z,10.43
2018-07-27T01:41:07.963Z,11.40
2018-07-27T01:43:36.590Z,8.43
2018-07-27T01:46:05.531Z,9.10
2018-07-27T01:48:34.104Z,8.00
2018-07-27T01:51:02.704Z,9.13
2018-07-27T01:53:32.266Z,11.77
2018-07-27T01:56:00.861Z,8.50
2018-07-27T01:58:29.660Z,8.90
2018-07-27T02:00:58.237Z,8.17
2018-07-27T02:03:26.797Z,9.30
2018-07-27T02:05:55.456Z,12.40
2018-07-27T02:08:24.010Z,9.90
2018-07-27T02:10:52.619Z,9.20
2018-07-27T02:13:21.298Z,10.10
2018-07-27T02:15:50.033Z,10.17
2018-07-27T02:18:20.192Z,10.03
2018-07-27T02:20:48.755Z,9.13
2018-07-27T02:23:18.426Z,9.40
2018-07-27T02:25:47.025Z,9.47
2018-07-27T02:28:20.660Z,14.90
2018-07-27T02:30:49.237Z,10.17
2018-07-27T02:33:17.845Z,9.97
2018-07-27T02:35:46.419Z,9.77
2018-07-27T02:38:18.257Z,10.53
2018-07-27T02:40:46.865Z,10.00
2018-07-27T02:43:15.491Z,9.60
2018-07-27T02:45:44.077Z,9.40
2018-07-27T02:48:13.769Z,10.47
2018-07-27T02:50:42.625Z,10.23
2018-07-27T02:53:11.197Z,9.60
2018-07-27T02:55:39.754Z,9.50
2018-07-27T02:58:10.497Z,10.90
2018-07-27T03:00:41.183Z,12.13
2018-07-27T03:03:12.739Z,9.77
2018-07-27T03:05:41.338Z,14.30
2018-07-27T03:08:12.064Z,14.20
2018-07-27T03:10:40.732Z,9.80
2018-07-27T03:13:09.326Z,10.83
2018-07-27T03:15:38.004Z,10.23
2018-07-27T03:18:12.133Z,10.70
2018-07-27T03:20:40.832Z,10.13
2018-07-27T03:23:09.436Z,11.30
2018-07-27T03:25:38.006Z,11.07
2018-07-27T03:28:08.759Z,10.60
2018-07-27T03:30:37.346Z,10.27
2018-07-27T03:33:05.945Z,10.30
2018-07-27T03:35:34.528Z,11.40
2018-07-27T03:38:03.275Z,11.83
2018-07-27T03:40:31.851Z,10.70
2018-07-27T03:43:00.449Z,11.30
2018-07-27T03:45:29.219Z,13.37
2018-07-27T03:48:10.517Z,11.20
2018-07-27T03:50:40.692Z,12.33
2018-07-27T03:53:09.855Z,11.07
2018-07-27T03:55:38.429Z,12.27
2018-07-27T03:58:08.460Z,10.97
2018-07-27T04:00:38.434Z,10.43
2018-07-27T04:03:09.869Z,10.50
2018-07-27T04:05:38.454Z,11.00
2018-07-27T04:08:07.224Z,10.60
2018-07-27T04:10:35.857Z,12.10
2018-07-27T04:13:04.489Z,10.77
2018-07-27T04:15:33.691Z,15.40
2018-07-27T04:18:02.591Z,17.20
2018-07-27T04:20:31.798Z,11.20
2018-07-27T04:23:00.503Z,10.37
2018-07-27T04:25:29.093Z,10.93
2018-07-27T04:27:57.651Z,15.93
2018-07-27T04:30:26.246Z,10.67
2018-07-27T04:35:28.953Z,11.10
2018-07-27T04:37:57.516Z,11.10
2018-07-27T04:40:26.101Z,10.83
2018-07-27T04:42:54.725Z,10.10
2018-07-27T04:45:23.337Z,10.90
2018-07-27T04:47:52.005Z,10.63
2018-07-27T04:50:20.618Z,9.80
2018-07-27T04:52:49.273Z,10.33
2018-07-27T04:55:17.970Z,10.90
2018-07-27T04:57:46.559Z,10.20
2018-07-27T05:00:15.180Z,10.30
2018-07-27T05:02:44.033Z,9.93
2018-07-27T05:05:12.656Z,10.07
2018-07-27T05:07:41.249Z,15.03
2018-07-27T05:10:16.894Z,11.70
2018-07-27T05:12:45.603Z,11.80
2018-07-27T05:15:14.370Z,10.43
2018-07-27T05:17:43.270Z,10.50
2018-07-27T05:20:12.822Z,11.73
2018-07-27T05:22:41.397Z,11.00
2018-07-27T05:25:10.014Z,10.43
2018-07-27T05:27:38.706Z,11.23
2018-07-27T05:30:07.492Z,10.50
2018-07-27T05:32:36.293Z,11.77
2018-07-27T05:35:05.362Z,10.73
2018-07-27T05:37:34.284Z,12.70
2018-07-27T05:40:02.926Z,10.67
2018-07-27T05:42:31.609Z,9.70
2018-07-27T05:45:00.271Z,9.07
2018-07-27T05:47:28.942Z,10.10
2018-07-27T05:52:32.921Z,10.27
2018-07-27T05:55:01.725Z,11.67
2018-07-27T05:57:30.338Z,10.37
2018-07-27T05:59:58.936Z,10.10
2018-07-27T06:02:27.717Z,10.53
2018-07-27T06:04:56.358Z,10.03
2018-07-27T06:07:25.018Z,10.73
2018-07-27T06:09:53.750Z,10.53
2018-07-27T06:12:22.437Z,11.97
2018-07-27T06:14:51.141Z,11.43
2018-07-27T06:17:20.095Z,17.63
2018-07-27T06:19:48.858Z,11.23
2018-07-27T06:22:17.854Z,11.20
2018-07-27T06:24:52.190Z,13.37
2018-07-27T06:27:21.240Z,11.03
2018-07-27T06:29:50.352Z,10.77
2018-07-27T06:32:21.209Z,11.80
2018-07-27T06:34:50.485Z,11.20
2018-07-27T06:37:19.357Z,12.70
2018-07-27T06:39:47.999Z,15.17
2018-07-27T06:42:23.571Z,12.07
2018-07-27T06:44:52.269Z,11.80
2018-07-27T06:47:20.893Z,13.60
2018-07-27T06:49:49.550Z,17.57
2018-07-27T06:52:20.878Z,12.20
2018-07-27T06:54:49.624Z,17.67
2018-07-27T06:57:18.403Z,20.47
2018-07-27T06:59:47.259Z,12.83
2018-07-27T07:02:19.248Z,12.00
2018-07-27T07:04:47.984Z,12.63
2018-07-27T07:07:17.842Z,11.90
2018-07-27T07:09:46.501Z,11.13
2018-07-27T07:12:16.170Z,12.43
2018-07-27T07:14:45.357Z,14.77
2018-07-27T07:17:14.282Z,13.53
2018-07-27T07:19:42.965Z,12.37
2018-07-27T07:22:12.611Z,12.90
2018-07-27T07:24:41.328Z,15.70
2018-07-27T07:27:10.755Z,13.03
2018-07-27T07:29:39.432Z,12.10
2018-07-27T07:32:09.918Z,13.67
2018-07-27T07:34:39.214Z,14.47
2018-07-27T07:37:07.828Z,18.33
2018-07-27T07:39:36.504Z,14.33
2018-07-27T07:42:05.204Z,12.17
2018-07-27T07:44:33.902Z,11.77
2018-07-27T07:47:02.720Z,24.60
2018-07-27T07:49:31.455Z,13.80
2018-07-27T07:52:00.127Z,12.93
2018-07-27T07:54:28.708Z,13.67
2018-07-27T07:56:57.384Z,13.07
2018-07-27T07:59:26.070Z,12.40
2018-07-27T08:01:55.014Z,12.60
2018-07-27T08:04:23.893Z,13.13
2018-07-27T08:06:52.645Z,11.00
2018-07-27T08:09:21.506Z,15.13
2018-07-27T08:11:51.442Z,10.93
2018-07-27T08:14:23.539Z,13.70
2018-07-27T08:16:52.246Z,12.27
2018-07-27T08:19:20.889Z,13.10
2018-07-27T08:21:49.479Z,13.23
2018-07-27T08:24:21.622Z,12.30
2018-07-27T08:26:54.417Z,12.97
2018-07-27T08:29:24.381Z,12.57
2018-07-27T08:31:53.646Z,11.60
2018-07-27T08:34:22.390Z,12.10
2018-07-27T08:36:51.430Z,11.97
2018-07-27T08:39:21.390Z,12.63
2018-07-27T08:41:50.238Z,14.60
2018-07-27T08:44:21.423Z,11.50
2018-07-27T08:46:50.200Z,12.30
2018-07-27T08:49:19.037Z,12.37
2018-07-27T08:51:47.621Z,12.77
2018-07-27T08:54:19.041Z,11.17
2018-07-27T08:56:47.638Z,11.30
2018-07-27T08:59:16.250Z,12.00
2018-07-27T09:01:44.869Z,11.57
2018-07-27T09:04:13.814Z,14.43
2018-07-27T09:06:42.490Z,13.13
2018-07-27T09:09:14.477Z,12.00
2018-07-27T09:11:43.095Z,14.80
2018-07-27T09:14:13.066Z,11.37
2018-07-27T09:16:41.662Z,12.90
2018-07-27T09:19:10.269Z,10.90
2018-07-27T09:21:39.056Z,12.23
2018-07-27T09:26:48.846Z,21.03
2018-07-27T09:29:17.473Z,12.87
2018-07-27T09:31:46.034Z,12.57
2018-07-27T09:34:17.194Z,14.87
2018-07-27T09:36:45.838Z,12.40
2018-07-27T09:39:14.423Z,13.30
2018-07-27T09:41:43.004Z,15.10
2018-07-27T09:44:13.627Z,12.30
2018-07-27T09:46:42.232Z,12.43
2018-07-27T09:49:11.047Z,16.77
2018-07-27T09:51:39.688Z,13.50
2018-07-27T09:54:12.539Z,13.20
2018-07-27T09:56:41.133Z,12.80
2018-07-27T09:59:09.750Z,12.87
2018-07-27T10:01:38.389Z,12.10
2018-07-27T10:04:08.814Z,12.30
2018-07-27T10:06:37.472Z,11.93
2018-07-27T10:09:08.707Z,12.97
2018-07-27T10:11:37.328Z,11.63
2018-07-27T10:14:05.969Z,10.67
2018-07-27T10:16:34.536Z,10.73
2018-07-27T10:19:03.222Z,11.80
2018-07-27T10:21:31.800Z,11.27
2018-07-27T10:24:00.416Z,11.03
2018-07-27T10:26:29.019Z,12.27
2018-07-27T10:28:57.602Z,10.33
2018-07-27T10:31:26.393Z,11.40
2018-07-27T10:33:55.571Z,10.83
2018-07-27T10:36:24.337Z,11.43
2018-07-27T10:38:52.894Z,9.27
2018-07-27T10:41:21.481Z,8.50
2018-07-27T10:43:50.083Z,10.27
2018-07-27T10:46:19.786Z,10.13
2018-07-27T10:48:48.388Z,17.77
2018-07-27T10:51:16.973Z,14.77
2018-07-27T10:53:45.594Z,10.70
2018-07-27T10:56:17.260Z,10.00
2018-07-27T10:58:45.889Z,11.17
2018-07-27T11:01:14.545Z,11.77
2018-07-27T11:03:43.088Z,10.13
2018-07-27T11:06:13.832Z,10.63
2018-07-27T11:08:42.650Z,11.43
2018-07-27T11:11:11.173Z,11.13
2018-07-27T11:13:39.794Z,11.10
2018-07-27T11:16:11.255Z,10.40
2018-07-27T11:18:39.799Z,10.23
2018-07-27T11:21:10.030Z,11.80
2018-07-27T11:23:38.602Z,10.73
2018-07-27T11:26:07.912Z,9.30
2018-07-27T11:28:36.543Z,15.33
2018-07-27T11:31:05.144Z,10.23
2018-07-27T11:33:33.944Z,10.80
2018-07-27T11:36:02.521Z,10.40
2018-07-27T11:38:31.098Z,10.70
2018-07-27T11:40:59.676Z,10.40
2018-07-27T11:43:28.330Z,12.43
2018-07-27T11:45:57.052Z,10.20
2018-07-27T11:48:25.747Z,11.57
2018-07-27T11:50:54.435Z,10.20
2018-07-27T11:53:23.022Z,9.67
2018-07-27T11:55:51.637Z,13.33
2018-07-27T11:58:20.338Z,10.83
2018-07-27T12:00:48.935Z,10.37
2018-07-27T12:03:17.511Z,9.97
2018-07-27T12:05:46.078Z,9.80
2018-07-27T12:08:16.383Z,10.67
2018-07-27T12:10:44.925Z,10.30
2018-07-27T12:13:13.737Z,11.60
2018-07-27T12:15:42.313Z,9.07
2018-07-27T12:18:15.256Z,9.07
2018-07-27T12:20:44.053Z,8.80
2018-07-27T12:23:12.586Z,9.10
2018-07-27T12:25:41.201Z,9.40
2018-07-27T12:28:11.425Z,9.10
2018-07-27T12:30:40.098Z,8.43
2018-07-27T12:33:13.343Z,8.23
2018-07-27T12:35:42.009Z,8.33
2018-07-27T12:38:12.120Z,8.83
2018-07-27T12:40:40.782Z,8.17
2018-07-27T12:43:09.447Z,8.00
2018-07-27T12:45:38.034Z,8.10
2018-07-27T12:48:06.722Z,8.73
2018-07-27T12:50:35.425Z,7.77
2018-07-27T12:53:04.057Z,7.80
2018-07-27T12:55:32.698Z,8.50
2018-07-27T12:58:01.328Z,7.80
2018-07-27T13:00:30.057Z,8.50
2018-07-27T13:02:58.740Z,8.03
2018-07-27T13:05:27.467Z,8.77
2018-07-27T13:07:56.074Z,9.33
2018-07-27T13:10:27.185Z,7.77
2018-07-27T13:12:55.832Z,7.03
2018-07-27T13:15:24.891Z,13.57
2018-07-27T13:17:53.669Z,7.20
2018-07-27T13:20:22.246Z,7.53
2018-07-27T13:22:50.894Z,7.00
2018-07-27T13:25:19.647Z,7.57
2018-07-27T13:27:48.409Z,7.13
2018-07-27T13:30:17.000Z,7.97
2018-07-27T13:32:45.746Z,8.20
2018-07-27T13:37:43.353Z,7.20
2018-07-27T13:40:12.644Z,8.17
2018-07-27T13:42:41.260Z,6.43
2018-07-27T13:45:14.363Z,6.33
2018-07-27T13:47:43.002Z,7.93
2018-07-27T13:50:13.417Z,6.47
2018-07-27T13:52:42.165Z,7.57
2018-07-27T13:55:10.849Z,7.20
2018-07-27T13:57:39.628Z,6.53
2018-07-27T14:00:08.361Z,7.20
2018-07-27T14:02:37.146Z,7.20
2018-07-27T14:05:06.482Z,8.00
2018-07-27T14:07:35.145Z,7.40
2018-07-27T14:10:04.024Z,7.97
2018-07-27T14:12:32.686Z,7.50
2018-07-27T14:15:01.379Z,7.07
2018-07-27T14:17:30.728Z,7.57
2018-07-27T14:19:59.462Z,7.30
2018-07-27T14:22:28.477Z,6.23
2018-07-27T14:24:57.116Z,6.50
2018-07-27T14:27:26.037Z,6.10
2018-07-27T14:29:55.526Z,6.10
2018-07-27T14:32:25.321Z,7.23
2018-07-27T14:34:54.016Z,6.47
2018-07-27T14:37:22.758Z,6.00
2018-07-27T14:39:51.629Z,5.83
2018-07-27T14:42:26.164Z,5.15
2018-07-27T14:44:54.952Z,5.22
2018-07-27T14:47:23.972Z,5.30
2018-07-27T14:49:53.423Z,4.80
2018-07-27T14:52:22.615Z,5.80
2018-07-27T14:54:51.470Z,5.47
2018-07-27T14:57:20.113Z,5.50
2018-07-27T14:59:48.837Z,5.40
2018-07-27T15:02:20.272Z,5.20
2018-07-27T15:04:48.933Z,6.03
2018-07-27T15:07:17.534Z,5.67
2018-07-27T15:09:46.150Z,6.07
2018-07-27T15:12:14.786Z,5.75
2018-07-27T15:14:43.384Z,5.53
2018-07-27T15:17:11.980Z,4.72
2018-07-27T15:19:40.574Z,5.78
2018-07-27T15:22:11.186Z,4.80
2018-07-27T15:24:39.848Z,5.87
2018-07-27T15:27:11.467Z,5.15
2018-07-27T15:29:40.113Z,4.78
2018-07-27T15:32:09.982Z,5.70
2018-07-27T15:34:38.534Z,5.25
2018-07-27T15:37:07.139Z,5.50
2018-07-27T15:39:35.859Z,5.17
2018-07-27T15:42:04.673Z,5.05
2018-07-27T15:44:33.487Z,7.53
2018-07-27T15:47:02.082Z,4.37
2018-07-27T15:49:30.641Z,4.67
2018-07-27T15:51:59.265Z,4.70
2018-07-27T15:54:27.858Z,3.83
2018-07-27T15:56:56.446Z,4.03
2018-07-27T15:59:25.020Z,4.40
2018-07-27T16:01:53.585Z,3.77
2018-07-27T16:04:22.537Z,4.42
2018-07-27T16:06:51.357Z,4.10
2018-07-27T16:09:20.053Z,3.65
2018-07-27T16:11:48.638Z,4.05
2018-07-27T16:14:21.072Z,4.20
2018-07-27T16:16:49.840Z,4.22
2018-07-27T16:19:18.402Z,4.97
2018-07-27T16:21:47.110Z,4.15
2018-07-27T16:24:18.068Z,4.40
2018-07-27T16:26:46.663Z,4.75
2018-07-27T16:29:15.230Z,3.95
2018-07-27T16:31:43.821Z,3.45
2018-07-27T16:34:12.549Z,4.05
2018-07-27T16:36:41.358Z,4.40
2018-07-27T16:39:12.454Z,4.05
2018-07-27T16:41:41.018Z,3.67
2018-07-27T16:44:12.629Z,4.30
2018-07-27T16:46:41.210Z,4.22
2018-07-27T16:49:09.771Z,4.80
2018-07-27T16:51:38.396Z,4.42
2018-07-27T16:54:11.108Z,4.33
2018-07-27T16:56:39.781Z,4.58
2018-07-27T16:59:08.377Z,4.62
2018-07-27T17:01:37.281Z,4.58
2018-07-27T17:04:06.006Z,4.60
2018-07-27T17:06:34.756Z,4.42
2018-07-27T17:09:03.528Z,4.40
2018-07-27T17:11:32.130Z,4.62
2018-07-27T17:14:00.738Z,4.70
2018-07-27T17:16:29.333Z,4.55
2018-07-27T17:18:57.918Z,9.33
2018-07-27T17:21:26.503Z,4.83
2018-07-27T17:23:55.502Z,4.53
2018-07-27T17:26:24.069Z,4.60
2018-07-27T17:28:52.888Z,5.17
2018-07-27T17:31:21.582Z,5.25
2018-07-27T17:33:50.181Z,4.45
2018-07-27T17:36:20.828Z,4.85
2018-07-27T17:38:49.525Z,4.70
2018-07-27T17:41:18.098Z,4.55
2018-07-27T17:43:46.755Z,5.40
2018-07-27T17:46:17.494Z,4.70
2018-07-27T17:48:46.119Z,5.20
2018-07-27T17:51:14.762Z,4.92
2018-07-27T17:53:43.346Z,6.42
2018-07-27T17:56:11.972Z,6.62
2018-07-27T17:58:40.565Z,6.30
2018-07-27T18:01:09.669Z,9.07
2018-07-27T18:03:38.314Z,9.73
2018-07-27T18:06:11.809Z,6.93
2018-07-27T18:08:40.581Z,8.87
2018-07-27T18:11:10.227Z,9.33
2018-07-27T18:13:38.870Z,11.33
2018-07-27T18:16:11.254Z,8.00
2018-07-27T18:18:39.949Z,6.40
2018-07-27T18:21:12.121Z,7.70
2018-07-27T18:23:40.917Z,7.20
2018-07-27T18:26:11.809Z,7.70
2018-07-27T18:28:40.437Z,7.30
2018-07-27T18:31:09.078Z,14.70
2018-07-27T18:33:37.699Z,8.20
2018-07-27T18:36:10.589Z,8.83
2018-07-27T18:38:39.194Z,8.80
2018-07-27T18:41:07.779Z,8.03
2018-07-27T18:43:36.443Z,7.40
2018-07-27T18:46:05.019Z,8.33
2018-07-27T18:48:33.625Z,8.23
2018-07-27T18:51:02.262Z,9.30
2018-07-27T18:53:30.981Z,9.40
2018-07-27T18:55:59.566Z,9.67
2018-07-27T18:58:28.166Z,9.27
2018-07-27T19:00:56.814Z,9.77
2018-07-27T19:03:25.412Z,9.37
2018-07-27T19:05:54.265Z,8.30
2018-07-27T19:08:22.850Z,9.00
2018-07-27T19:10:51.449Z,10.10
2018-07-27T19:13:20.014Z,9.70
2018-07-27T19:15:48.671Z,10.67
2018-07-27T19:18:20.351Z,9.03
2018-07-27T19:20:48.980Z,8.60
2018-07-27T19:23:17.618Z,10.90
2018-07-27T19:25:46.262Z,8.73
2018-07-27T19:28:17.529Z,9.70
2018-07-27T19:30:46.489Z,9.83
2018-07-27T19:33:15.058Z,9.83
2018-07-27T19:35:43.642Z,9.37
2018-07-27T19:38:12.313Z,8.80
2018-07-27T19:40:40.961Z,9.50
2018-07-27T19:43:09.589Z,8.90
2018-07-27T19:45:38.230Z,9.13
2018-07-27T19:48:06.884Z,9.17
2018-07-27T19:50:35.499Z,11.10
2018-07-27T19:53:04.129Z,9.67
2018-07-27T19:55:32.740Z,9.43
2018-07-27T19:58:01.403Z,9.97
2018-07-27T20:00:30.424Z,14.30
2018-07-27T20:02:59.062Z,9.23
2018-07-27T20:05:27.766Z,9.07
2018-07-27T20:07:57.303Z,8.47
2018-07-27T20:10:25.985Z,12.90
2018-07-27T20:12:54.569Z,7.70
2018-07-27T20:15:23.184Z,15.37
2018-07-27T20:17:51.785Z,10.50
2018-07-27T20:20:20.381Z,11.87
2018-07-27T20:22:49.011Z,10.20
2018-07-27T20:25:17.594Z,12.80
2018-07-27T20:27:46.179Z,11.60
2018-07-27T20:30:15.741Z,11.93
2018-07-27T20:32:44.415Z,11.37
2018-07-27T20:35:13.005Z,12.23
2018-07-27T20:37:41.653Z,13.80
2018-07-27T20:40:11.116Z,11.77
2018-07-27T20:42:39.967Z,13.30
2018-07-27T20:45:09.912Z,13.10
2018-07-27T20:47:38.672Z,14.23
2018-07-27T20:50:08.929Z,13.40
2018-07-27T20:52:37.716Z,13.03
2018-07-27T20:55:06.522Z,13.67
2018-07-27T20:57:35.199Z,13.67
2018-07-27T21:00:03.918Z,15.60
2018-07-27T21:02:32.523Z,14.10
2018-07-27T21:05:01.968Z,15.43
2018-07-27T21:07:30.570Z,16.00
2018-07-27T21:09:59.165Z,16.27
2018-07-27T21:12:28.039Z,13.70
2018-07-27T21:14:56.677Z,14.33
2018-07-27T21:17:25.239Z,13.70
2018-07-27T21:19:53.852Z,16.20
2018-07-27T21:22:22.426Z,15.07
2018-07-27T21:24:51.037Z,16.70
2018-07-27T21:27:19.690Z,17.27
2018-07-27T21:29:48.273Z,15.60
2018-07-27T21:32:20.213Z,14.03
2018-07-27T21:34:48.821Z,15.23
2018-07-27T21:37:17.480Z,16.33
2018-07-27T21:39:46.211Z,15.27
2018-07-27T21:42:14.907Z,16.10
2018-07-27T21:44:43.907Z,15.50
2018-07-27T21:47:12.727Z,18.63
2018-07-27T21:49:41.292Z,24.53
2018-07-27T21:52:10.375Z,17.10
2018-07-27T21:54:38.958Z,18.90
2018-07-27T21:57:08.009Z,17.27
2018-07-27T21:59:36.599Z,16.00
2018-07-27T22:02:05.334Z,19.70
2018-07-27T22:04:40.684Z,15.63
2018-07-27T22:07:09.303Z,21.30
2018-07-27T22:09:38.094Z,17.00
2018-07-27T22:12:08.351Z,18.13
2018-07-27T22:14:37.077Z,20.10
2018-07-27T22:17:06.102Z,16.60
2018-07-27T22:19:34.681Z,14.47
2018-07-27T22:22:03.256Z,18.23
2018-07-27T22:24:31.833Z,19.67
2018-07-27T22:27:00.442Z,18.10
2018-07-27T22:29:29.073Z,25.70
2018-07-27T22:31:57.701Z,18.37
2018-07-27T22:34:26.266Z,16.57
2018-07-27T22:36:54.848Z,21.23
2018-07-27T22:39:23.528Z,18.90
2018-07-27T22:41:52.167Z,17.10
2018-07-27T22:44:20.823Z,23.20
2018-07-27T22:46:49.525Z,18.03
2018-07-27T22:49:18.173Z,17.33
2018-07-27T22:51:46.796Z,16.23
2018-07-27T22:54:15.434Z,18.27
2018-07-27T22:56:44.005Z,20.07
2018-07-27T22:59:12.625Z,18.40
2018-07-27T23:01:41.226Z,16.93
2018-07-27T23:04:13.651Z,19.53
2018-07-27T23:06:42.261Z,17.40
2018-07-27T23:09:12.805Z,17.83
2018-07-27T23:11:41.433Z,16.47
2018-07-27T23:14:12.983Z,21.30
2018-07-27T23:16:41.597Z,17.33
2018-07-27T23:19:10.197Z,17.37
2018-07-27T23:21:38.804Z,17.00
2018-07-27T23:24:10.204Z,15.77
2018-07-27T23:26:39.125Z,15.47
2018-07-27T23:29:07.778Z,19.70
2018-07-27T23:31:41.850Z,16.60
2018-07-27T23:34:11.442Z,15.57
2018-07-27T23:36:40.074Z,15.50
2018-07-27T23:39:12.948Z,14.50
2018-07-27T23:41:41.687Z,15.60
2018-07-27T23:44:11.073Z,17.83
2018-07-27T23:46:39.685Z,17.10
2018-07-27T23:49:08.485Z,17.93
2018-07-27T23:51:37.066Z,18.23
2018-07-27T23:54:05.717Z,18.33
2018-07-27T23:56:34.290Z,18.77
2018-07-27T23:59:02.925Z,19.27
